sensor_id;sensor_type;location;lat;lon;timestamp;P1;durP1;ratioP1;P2;durP2;ratioP2
82505;SDS011;72144;51.444;10.560;2023-12-14T00:02:14;6.18;;;3.40;;
82505;SDS011;72144;51.444;10.560;2023-12-14T00:04:40;5.80;;;4.05;;
82505;SDS011;72144;51.444;10.560;2023-12-14T00:07:06;5.25;;;3.80;;
82505;SDS011;72144;51.444;10.560;2023-12-14T00:09:31;5.25;;;3.85;;
82505;SDS011;72144;51.444;10.560;2023-12-14T00:11:56;6.00;;;3.92;;
82505;SDS011;72144;51.444;10.560;2023-12-14T00:14:22;4.75;;;3.85;;
82505;SDS011;72144;51.444;10.560;2023-12-14T00:16:47;5.45;;;3.90;;
82505;SDS011;72144;51.444;10.560;2023-12-14T00:19:14;4.10;;;2.83;;
82505;SDS011;72144;51.444;10.560;2023-12-14T00:21:39;5.82;;;4.03;;
82505;SDS011;72144;51.444;10.560;2023-12-14T00:24:05;5.85;;;4.03;;
82505;SDS011;72144;51.444;10.560;2023-12-14T00:26:31;5.55;;;3.53;;
82505;SDS011;72144;51.444;10.560;2023-12-14T00:28:56;5.82;;;4.25;;
82505;SDS011;72144;51.444;10.560;2023-12-14T00:31:21;5.13;;;3.83;;
82505;SDS011;72144;51.444;10.560;2023-12-14T00:33:47;6.88;;;3.67;;
82505;SDS011;72144;51.444;10.560;2023-12-14T00:36:18;4.50;;;3.58;;
82505;SDS011;72144;51.444;10.560;2023-12-14T00:38:44;5.70;;;3.90;;
82505;SDS011;72144;51.444;10.560;2023-12-14T00:41:10;6.45;;;3.85;;
82505;SDS011;72144;51.444;10.560;2023-12-14T00:43:35;7.90;;;4.40;;
82505;SDS011;72144;51.444;10.560;2023-12-14T00:46:01;6.85;;;3.88;;
82505;SDS011;72144;51.444;10.560;2023-12-14T00:48:27;4.65;;;3.10;;
82505;SDS011;72144;51.444;10.560;2023-12-14T00:50:53;5.13;;;3.53;;
82505;SDS011;72144;51.444;10.560;2023-12-14T00:53:18;5.18;;;3.50;;
82505;SDS011;72144;51.444;10.560;2023-12-14T00:55:44;6.32;;;3.72;;
82505;SDS011;72144;51.444;10.560;2023-12-14T00:58:10;6.60;;;4.53;;
82505;SDS011;72144;51.444;10.560;2023-12-14T01:00:38;5.30;;;4.18;;
82505;SDS011;72144;51.444;10.560;2023-12-14T01:03:03;6.53;;;4.10;;
82505;SDS011;72144;51.444;10.560;2023-12-14T01:05:29;7.13;;;4.38;;
82505;SDS011;72144;51.444;10.560;2023-12-14T01:07:54;6.63;;;4.50;;
82505;SDS011;72144;51.444;10.560;2023-12-14T01:10:20;7.30;;;4.68;;
82505;SDS011;72144;51.444;10.560;2023-12-14T01:12:45;5.97;;;4.10;;
82505;SDS011;72144;51.444;10.560;2023-12-14T01:15:10;6.65;;;4.32;;
82505;SDS011;72144;51.444;10.560;2023-12-14T01:17:36;8.55;;;5.03;;
82505;SDS011;72144;51.444;10.560;2023-12-14T01:20:11;7.43;;;5.00;;
82505;SDS011;72144;51.444;10.560;2023-12-14T01:22:36;8.25;;;4.38;;
82505;SDS011;72144;51.444;10.560;2023-12-14T01:25:02;7.68;;;4.40;;
82505;SDS011;72144;51.444;10.560;2023-12-14T01:27:27;6.53;;;4.75;;
82505;SDS011;72144;51.444;10.560;2023-12-14T01:29:52;5.85;;;4.10;;
82505;SDS011;72144;51.444;10.560;2023-12-14T01:32:18;6.82;;;4.47;;
82505;SDS011;72144;51.444;10.560;2023-12-14T01:34:44;7.20;;;4.82;;
82505;SDS011;72144;51.444;10.560;2023-12-14T01:37:10;6.30;;;3.90;;
82505;SDS011;72144;51.444;10.560;2023-12-14T01:39:35;6.95;;;4.80;;
82505;SDS011;72144;51.444;10.560;2023-12-14T01:42:00;7.65;;;4.68;;
82505;SDS011;72144;51.444;10.560;2023-12-14T01:44:26;5.32;;;3.95;;
82505;SDS011;72144;51.444;10.560;2023-12-14T01:46:51;7.38;;;4.43;;
82505;SDS011;72144;51.444;10.560;2023-12-14T01:49:16;7.25;;;4.00;;
82505;SDS011;72144;51.444;10.560;2023-12-14T01:51:42;6.15;;;4.28;;
82505;SDS011;72144;51.444;10.560;2023-12-14T01:54:07;6.65;;;4.30;;
82505;SDS011;72144;51.444;10.560;2023-12-14T01:56:33;5.65;;;3.88;;
82505;SDS011;72144;51.444;10.560;2023-12-14T01:58:59;6.38;;;3.97;;
82505;SDS011;72144;51.444;10.560;2023-12-14T02:01:28;5.32;;;3.42;;
82505;SDS011;72144;51.444;10.560;2023-12-14T02:03:59;6.38;;;3.97;;
82505;SDS011;72144;51.444;10.560;2023-12-14T02:06:26;6.30;;;4.32;;
82505;SDS011;72144;51.444;10.560;2023-12-14T02:08:52;7.30;;;5.13;;
82505;SDS011;72144;51.444;10.560;2023-12-14T02:11:17;8.40;;;4.80;;
82505;SDS011;72144;51.444;10.560;2023-12-14T02:13:43;7.40;;;4.30;;
82505;SDS011;72144;51.444;10.560;2023-12-14T02:16:08;9.18;;;5.18;;
82505;SDS011;72144;51.444;10.560;2023-12-14T02:18:34;8.10;;;5.47;;
82505;SDS011;72144;51.444;10.560;2023-12-14T02:21:00;8.38;;;5.28;;
82505;SDS011;72144;51.444;10.560;2023-12-14T02:23:25;10.63;;;5.78;;
82505;SDS011;72144;51.444;10.560;2023-12-14T02:25:51;10.85;;;6.45;;
82505;SDS011;72144;51.444;10.560;2023-12-14T02:28:16;9.05;;;5.72;;
82505;SDS011;72144;51.444;10.560;2023-12-14T02:30:41;9.13;;;5.35;;
82505;SDS011;72144;51.444;10.560;2023-12-14T02:33:07;8.27;;;5.07;;
82505;SDS011;72144;51.444;10.560;2023-12-14T02:35:33;8.68;;;5.28;;
82505;SDS011;72144;51.444;10.560;2023-12-14T02:37:58;9.07;;;4.85;;
82505;SDS011;72144;51.444;10.560;2023-12-14T02:40:23;7.50;;;4.93;;
82505;SDS011;72144;51.444;10.560;2023-12-14T02:42:49;10.05;;;5.35;;
82505;SDS011;72144;51.444;10.560;2023-12-14T02:45:14;8.10;;;5.85;;
82505;SDS011;72144;51.444;10.560;2023-12-14T02:47:40;7.53;;;4.43;;
82505;SDS011;72144;51.444;10.560;2023-12-14T02:50:05;8.90;;;6.05;;
82505;SDS011;72144;51.444;10.560;2023-12-14T02:52:31;8.13;;;5.53;;
82505;SDS011;72144;51.444;10.560;2023-12-14T02:54:56;7.30;;;5.50;;
82505;SDS011;72144;51.444;10.560;2023-12-14T02:57:22;8.70;;;5.82;;
82505;SDS011;72144;51.444;10.560;2023-12-14T02:59:47;9.18;;;5.75;;
82505;SDS011;72144;51.444;10.560;2023-12-14T03:02:12;8.70;;;5.70;;
82505;SDS011;72144;51.444;10.560;2023-12-14T03:04:38;9.13;;;5.80;;
82505;SDS011;72144;51.444;10.560;2023-12-14T03:07:04;8.07;;;5.85;;
82505;SDS011;72144;51.444;10.560;2023-12-14T03:09:30;9.05;;;6.13;;
82505;SDS011;72144;51.444;10.560;2023-12-14T03:11:55;9.25;;;6.03;;
82505;SDS011;72144;51.444;10.560;2023-12-14T03:14:21;8.77;;;5.80;;
82505;SDS011;72144;51.444;10.560;2023-12-14T03:16:47;8.23;;;5.78;;
82505;SDS011;72144;51.444;10.560;2023-12-14T03:19:14;7.55;;;5.20;;
82505;SDS011;72144;51.444;10.560;2023-12-14T03:21:40;8.38;;;5.72;;
82505;SDS011;72144;51.444;10.560;2023-12-14T03:24:05;8.85;;;5.70;;
82505;SDS011;72144;51.444;10.560;2023-12-14T03:26:31;8.05;;;5.47;;
82505;SDS011;72144;51.444;10.560;2023-12-14T03:28:56;8.85;;;5.53;;
82505;SDS011;72144;51.444;10.560;2023-12-14T03:33:52;7.05;;;5.15;;
82505;SDS011;72144;51.444;10.560;2023-12-14T03:36:17;7.57;;;5.05;;
82505;SDS011;72144;51.444;10.560;2023-12-14T03:38:43;8.48;;;5.30;;
82505;SDS011;72144;51.444;10.560;2023-12-14T03:41:08;6.28;;;4.25;;
82505;SDS011;72144;51.444;10.560;2023-12-14T03:43:34;6.55;;;4.00;;
82505;SDS011;72144;51.444;10.560;2023-12-14T03:45:59;5.90;;;3.92;;
82505;SDS011;72144;51.444;10.560;2023-12-14T03:48:24;6.68;;;4.18;;
82505;SDS011;72144;51.444;10.560;2023-12-14T03:50:50;6.07;;;3.78;;
82505;SDS011;72144;51.444;10.560;2023-12-14T03:53:15;7.22;;;4.65;;
82505;SDS011;72144;51.444;10.560;2023-12-14T03:55:40;6.47;;;4.80;;
82505;SDS011;72144;51.444;10.560;2023-12-14T03:58:06;5.85;;;3.83;;
82505;SDS011;72144;51.444;10.560;2023-12-14T04:00:31;6.55;;;4.53;;
82505;SDS011;72144;51.444;10.560;2023-12-14T04:02:57;7.68;;;3.95;;
82505;SDS011;72144;51.444;10.560;2023-12-14T04:05:22;6.10;;;4.03;;
82505;SDS011;72144;51.444;10.560;2023-12-14T04:07:48;6.43;;;4.50;;
82505;SDS011;72144;51.444;10.560;2023-12-14T04:10:13;7.30;;;4.25;;
82505;SDS011;72144;51.444;10.560;2023-12-14T04:12:39;5.45;;;3.63;;
82505;SDS011;72144;51.444;10.560;2023-12-14T04:15:05;5.22;;;3.40;;
82505;SDS011;72144;51.444;10.560;2023-12-14T04:17:32;4.07;;;2.50;;
82505;SDS011;72144;51.444;10.560;2023-12-14T04:19:57;3.75;;;2.40;;
82505;SDS011;72144;51.444;10.560;2023-12-14T04:22:23;3.65;;;2.10;;
82505;SDS011;72144;51.444;10.560;2023-12-14T04:24:48;3.97;;;2.40;;
82505;SDS011;72144;51.444;10.560;2023-12-14T04:27:15;2.65;;;1.73;;
82505;SDS011;72144;51.444;10.560;2023-12-14T04:29:40;2.65;;;1.90;;
82505;SDS011;72144;51.444;10.560;2023-12-14T04:32:06;3.13;;;1.95;;
82505;SDS011;72144;51.444;10.560;2023-12-14T04:34:32;2.13;;;1.35;;
82505;SDS011;72144;51.444;10.560;2023-12-14T04:36:57;2.25;;;1.27;;
82505;SDS011;72144;51.444;10.560;2023-12-14T04:39:23;1.77;;;1.20;;
82505;SDS011;72144;51.444;10.560;2023-12-14T04:41:52;2.22;;;1.52;;
82505;SDS011;72144;51.444;10.560;2023-12-14T04:44:21;2.80;;;1.83;;
82505;SDS011;72144;51.444;10.560;2023-12-14T04:46:47;2.65;;;1.90;;
82505;SDS011;72144;51.444;10.560;2023-12-14T04:49:13;3.17;;;2.00;;
82505;SDS011;72144;51.444;10.560;2023-12-14T04:51:38;3.30;;;2.05;;
82505;SDS011;72144;51.444;10.560;2023-12-14T04:54:04;2.78;;;2.13;;
82505;SDS011;72144;51.444;10.560;2023-12-14T04:56:29;3.47;;;2.05;;
82505;SDS011;72144;51.444;10.560;2023-12-14T04:58:55;3.63;;;2.28;;
82505;SDS011;72144;51.444;10.560;2023-12-14T05:01:20;3.17;;;2.00;;
82505;SDS011;72144;51.444;10.560;2023-12-14T05:03:46;3.50;;;2.42;;
82505;SDS011;72144;51.444;10.560;2023-12-14T05:06:11;2.90;;;1.92;;
82505;SDS011;72144;51.444;10.560;2023-12-14T05:08:37;3.30;;;2.20;;
82505;SDS011;72144;51.444;10.560;2023-12-14T05:11:02;2.88;;;1.77;;
82505;SDS011;72144;51.444;10.560;2023-12-14T05:13:28;2.17;;;1.50;;
82505;SDS011;72144;51.444;10.560;2023-12-14T05:15:53;2.45;;;1.40;;
82505;SDS011;72144;51.444;10.560;2023-12-14T05:18:19;2.40;;;1.50;;
82505;SDS011;72144;51.444;10.560;2023-12-14T05:20:44;2.03;;;1.20;;
82505;SDS011;72144;51.444;10.560;2023-12-14T05:23:11;3.92;;;1.50;;
82505;SDS011;72144;51.444;10.560;2023-12-14T05:25:39;2.35;;;1.48;;
82505;SDS011;72144;51.444;10.560;2023-12-14T05:28:04;2.28;;;1.50;;
82505;SDS011;72144;51.444;10.560;2023-12-14T05:30:30;2.42;;;1.58;;
82505;SDS011;72144;51.444;10.560;2023-12-14T05:32:55;2.20;;;1.60;;
82505;SDS011;72144;51.444;10.560;2023-12-14T05:35:21;2.72;;;1.50;;
82505;SDS011;72144;51.444;10.560;2023-12-14T05:37:46;1.80;;;1.40;;
82505;SDS011;72144;51.444;10.560;2023-12-14T05:40:12;2.47;;;1.33;;
82505;SDS011;72144;51.444;10.560;2023-12-14T05:42:37;1.80;;;1.20;;
82505;SDS011;72144;51.444;10.560;2023-12-14T05:45:04;2.03;;;1.20;;
82505;SDS011;72144;51.444;10.560;2023-12-14T05:47:30;2.03;;;1.10;;
82505;SDS011;72144;51.444;10.560;2023-12-14T05:49:57;1.65;;;1.00;;
82505;SDS011;72144;51.444;10.560;2023-12-14T05:52:22;1.58;;;1.23;;
82505;SDS011;72144;51.444;10.560;2023-12-14T05:54:47;1.67;;;1.20;;
82505;SDS011;72144;51.444;10.560;2023-12-14T05:57:13;2.53;;;1.60;;
82505;SDS011;72144;51.444;10.560;2023-12-14T05:59:38;1.88;;;1.27;;
82505;SDS011;72144;51.444;10.560;2023-12-14T06:02:04;2.08;;;1.50;;
82505;SDS011;72144;51.444;10.560;2023-12-14T06:04:31;1.80;;;1.38;;
82505;SDS011;72144;51.444;10.560;2023-12-14T06:06:57;2.17;;;1.38;;
82505;SDS011;72144;51.444;10.560;2023-12-14T06:09:23;1.80;;;1.23;;
82505;SDS011;72144;51.444;10.560;2023-12-14T06:11:54;2.53;;;1.73;;
82505;SDS011;72144;51.444;10.560;2023-12-14T06:14:19;2.38;;;1.35;;
82505;SDS011;72144;51.444;10.560;2023-12-14T06:16:45;1.95;;;1.35;;
82505;SDS011;72144;51.444;10.560;2023-12-14T06:19:10;2.15;;;1.67;;
82505;SDS011;72144;51.444;10.560;2023-12-14T06:21:36;2.78;;;1.27;;
82505;SDS011;72144;51.444;10.560;2023-12-14T06:24:01;2.58;;;1.48;;
82505;SDS011;72144;51.444;10.560;2023-12-14T06:26:27;1.83;;;1.25;;
82505;SDS011;72144;51.444;10.560;2023-12-14T06:28:52;2.63;;;1.63;;
82505;SDS011;72144;51.444;10.560;2023-12-14T06:31:18;2.53;;;1.33;;
82505;SDS011;72144;51.444;10.560;2023-12-14T06:33:47;2.15;;;1.50;;
82505;SDS011;72144;51.444;10.560;2023-12-14T06:36:14;4.20;;;1.85;;
82505;SDS011;72144;51.444;10.560;2023-12-14T06:38:42;1.48;;;1.27;;
82505;SDS011;72144;51.444;10.560;2023-12-14T06:41:07;1.88;;;1.15;;
82505;SDS011;72144;51.444;10.560;2023-12-14T06:43:33;2.45;;;1.60;;
82505;SDS011;72144;51.444;10.560;2023-12-14T06:45:59;3.30;;;1.55;;
82505;SDS011;72144;51.444;10.560;2023-12-14T06:48:24;2.28;;;1.60;;
82505;SDS011;72144;51.444;10.560;2023-12-14T06:50:50;2.83;;;1.50;;
82505;SDS011;72144;51.444;10.560;2023-12-14T06:53:18;2.72;;;1.70;;
82505;SDS011;72144;51.444;10.560;2023-12-14T06:55:44;2.72;;;2.08;;
82505;SDS011;72144;51.444;10.560;2023-12-14T06:58:21;2.80;;;1.90;;
82505;SDS011;72144;51.444;10.560;2023-12-14T07:00:46;2.85;;;1.95;;
82505;SDS011;72144;51.444;10.560;2023-12-14T07:03:15;2.88;;;1.90;;
82505;SDS011;72144;51.444;10.560;2023-12-14T07:05:43;4.00;;;1.88;;
82505;SDS011;72144;51.444;10.560;2023-12-14T07:08:12;3.17;;;1.92;;
82505;SDS011;72144;51.444;10.560;2023-12-14T07:10:41;3.20;;;2.20;;
82505;SDS011;72144;51.444;10.560;2023-12-14T07:13:10;4.43;;;2.00;;
82505;SDS011;72144;51.444;10.560;2023-12-14T07:15:39;3.88;;;2.25;;
82505;SDS011;72144;51.444;10.560;2023-12-14T07:18:05;4.38;;;2.30;;
82505;SDS011;72144;51.444;10.560;2023-12-14T07:20:33;4.30;;;2.28;;
82505;SDS011;72144;51.444;10.560;2023-12-14T07:22:59;4.15;;;2.63;;
82505;SDS011;72144;51.444;10.560;2023-12-14T07:25:24;3.28;;;2.38;;
82505;SDS011;72144;51.444;10.560;2023-12-14T07:27:50;4.63;;;2.53;;
82505;SDS011;72144;51.444;10.560;2023-12-14T07:30:16;3.65;;;1.98;;
82505;SDS011;72144;51.444;10.560;2023-12-14T07:32:45;4.05;;;2.20;;
82505;SDS011;72144;51.444;10.560;2023-12-14T07:35:13;4.18;;;2.60;;
82505;SDS011;72144;51.444;10.560;2023-12-14T07:37:38;4.35;;;3.05;;
82505;SDS011;72144;51.444;10.560;2023-12-14T07:40:04;7.75;;;3.13;;
82505;SDS011;72144;51.444;10.560;2023-12-14T07:42:31;5.78;;;3.42;;
82505;SDS011;72144;51.444;10.560;2023-12-14T07:44:56;6.03;;;3.33;;
82505;SDS011;72144;51.444;10.560;2023-12-14T07:47:22;5.43;;;3.03;;
82505;SDS011;72144;51.444;10.560;2023-12-14T07:49:55;5.03;;;3.30;;
82505;SDS011;72144;51.444;10.560;2023-12-14T07:52:21;6.50;;;3.92;;
82505;SDS011;72144;51.444;10.560;2023-12-14T07:54:46;6.53;;;3.70;;
82505;SDS011;72144;51.444;10.560;2023-12-14T07:57:11;5.97;;;3.72;;
82505;SDS011;72144;51.444;10.560;2023-12-14T07:59:37;4.53;;;3.15;;
82505;SDS011;72144;51.444;10.560;2023-12-14T08:02:02;4.93;;;3.25;;
82505;SDS011;72144;51.444;10.560;2023-12-14T08:04:28;5.00;;;3.28;;
82505;SDS011;72144;51.444;10.560;2023-12-14T08:06:53;5.75;;;3.60;;
82505;SDS011;72144;51.444;10.560;2023-12-14T08:09:19;6.28;;;4.65;;
82505;SDS011;72144;51.444;10.560;2023-12-14T08:11:44;8.38;;;4.95;;
82505;SDS011;72144;51.444;10.560;2023-12-14T08:14:09;8.57;;;4.03;;
82505;SDS011;72144;51.444;10.560;2023-12-14T08:16:35;5.22;;;3.40;;
82505;SDS011;72144;51.444;10.560;2023-12-14T08:19:01;4.93;;;2.85;;
82505;SDS011;72144;51.444;10.560;2023-12-14T08:21:26;4.75;;;3.25;;
82505;SDS011;72144;51.444;10.560;2023-12-14T08:23:51;4.88;;;3.45;;
82505;SDS011;72144;51.444;10.560;2023-12-14T08:26:17;5.35;;;2.80;;
82505;SDS011;72144;51.444;10.560;2023-12-14T08:28:42;5.20;;;3.08;;
82505;SDS011;72144;51.444;10.560;2023-12-14T08:31:08;4.78;;;3.15;;
82505;SDS011;72144;51.444;10.560;2023-12-14T08:33:41;4.97;;;3.08;;
82505;SDS011;72144;51.444;10.560;2023-12-14T08:36:07;5.03;;;2.95;;
82505;SDS011;72144;51.444;10.560;2023-12-14T08:38:33;4.80;;;3.30;;
82505;SDS011;72144;51.444;10.560;2023-12-14T08:40:58;5.85;;;3.78;;
82505;SDS011;72144;51.444;10.560;2023-12-14T08:43:24;5.00;;;3.42;;
82505;SDS011;72144;51.444;10.560;2023-12-14T08:45:49;6.70;;;4.00;;
82505;SDS011;72144;51.444;10.560;2023-12-14T08:48:15;4.20;;;2.97;;
82505;SDS011;72144;51.444;10.560;2023-12-14T08:50:40;5.22;;;3.13;;
82505;SDS011;72144;51.444;10.560;2023-12-14T08:53:05;4.68;;;3.33;;
82505;SDS011;72144;51.444;10.560;2023-12-14T08:55:32;5.15;;;3.47;;
82505;SDS011;72144;51.444;10.560;2023-12-14T08:57:57;4.55;;;3.30;;
82505;SDS011;72144;51.444;10.560;2023-12-14T09:00:23;4.15;;;3.00;;
82505;SDS011;72144;51.444;10.560;2023-12-14T09:02:49;4.20;;;2.85;;
82505;SDS011;72144;51.444;10.560;2023-12-14T09:05:14;3.70;;;2.60;;
82505;SDS011;72144;51.444;10.560;2023-12-14T09:07:41;3.30;;;2.20;;
82505;SDS011;72144;51.444;10.560;2023-12-14T09:10:07;3.60;;;2.47;;
82505;SDS011;72144;51.444;10.560;2023-12-14T09:12:33;4.03;;;2.70;;
82505;SDS011;72144;51.444;10.560;2023-12-14T09:14:59;4.00;;;2.85;;
82505;SDS011;72144;51.444;10.560;2023-12-14T09:17:25;4.50;;;3.20;;
82505;SDS011;72144;51.444;10.560;2023-12-14T09:19:51;3.10;;;2.17;;
82505;SDS011;72144;51.444;10.560;2023-12-14T09:22:16;4.00;;;2.80;;
82505;SDS011;72144;51.444;10.560;2023-12-14T09:24:42;4.47;;;2.75;;
82505;SDS011;72144;51.444;10.560;2023-12-14T09:27:08;4.43;;;3.10;;
82505;SDS011;72144;51.444;10.560;2023-12-14T09:29:33;3.83;;;2.85;;
82505;SDS011;72144;51.444;10.560;2023-12-14T09:31:58;3.70;;;2.88;;
82505;SDS011;72144;51.444;10.560;2023-12-14T09:34:24;5.03;;;3.47;;
82505;SDS011;72144;51.444;10.560;2023-12-14T09:36:49;4.15;;;3.00;;
82505;SDS011;72144;51.444;10.560;2023-12-14T09:39:15;3.92;;;2.80;;
82505;SDS011;72144;51.444;10.560;2023-12-14T09:41:40;6.75;;;3.58;;
82505;SDS011;72144;51.444;10.560;2023-12-14T09:44:06;4.93;;;3.30;;
82505;SDS011;72144;51.444;10.560;2023-12-14T09:46:36;5.20;;;3.75;;
82505;SDS011;72144;51.444;10.560;2023-12-14T09:49:02;5.45;;;3.40;;
82505;SDS011;72144;51.444;10.560;2023-12-14T09:51:29;5.05;;;3.38;;
82505;SDS011;72144;51.444;10.560;2023-12-14T09:53:55;3.80;;;2.90;;
82505;SDS011;72144;51.444;10.560;2023-12-14T09:56:26;5.00;;;3.00;;
82505;SDS011;72144;51.444;10.560;2023-12-14T09:58:52;5.63;;;4.28;;
82505;SDS011;72144;51.444;10.560;2023-12-14T10:01:21;5.40;;;3.80;;
82505;SDS011;72144;51.444;10.560;2023-12-14T10:03:49;5.47;;;4.03;;
82505;SDS011;72144;51.444;10.560;2023-12-14T10:06:14;4.93;;;3.45;;
82505;SDS011;72144;51.444;10.560;2023-12-14T10:08:40;5.32;;;3.42;;
82505;SDS011;72144;51.444;10.560;2023-12-14T10:11:05;5.25;;;3.50;;
82505;SDS011;72144;51.444;10.560;2023-12-14T10:13:40;5.88;;;3.53;;
82505;SDS011;72144;51.444;10.560;2023-12-14T10:16:06;4.57;;;3.42;;
82505;SDS011;72144;51.444;10.560;2023-12-14T10:18:32;4.82;;;3.15;;
82505;SDS011;72144;51.444;10.560;2023-12-14T10:21:01;7.32;;;4.45;;
82505;SDS011;72144;51.444;10.560;2023-12-14T10:23:29;5.95;;;3.65;;
82505;SDS011;72144;51.444;10.560;2023-12-14T10:25:55;5.88;;;4.75;;
82505;SDS011;72144;51.444;10.560;2023-12-14T10:28:20;7.18;;;4.68;;
82505;SDS011;72144;51.444;10.560;2023-12-14T10:30:47;6.97;;;4.28;;
82505;SDS011;72144;51.444;10.560;2023-12-14T10:33:12;7.60;;;4.55;;
82505;SDS011;72144;51.444;10.560;2023-12-14T10:35:39;6.10;;;3.85;;
82505;SDS011;72144;51.444;10.560;2023-12-14T10:38:06;6.30;;;3.65;;
82505;SDS011;72144;51.444;10.560;2023-12-14T10:40:33;6.55;;;4.20;;
82505;SDS011;72144;51.444;10.560;2023-12-14T10:43:01;7.15;;;4.28;;
82505;SDS011;72144;51.444;10.560;2023-12-14T10:45:29;6.57;;;3.85;;
82505;SDS011;72144;51.444;10.560;2023-12-14T10:47:58;5.75;;;3.28;;
82505;SDS011;72144;51.444;10.560;2023-12-14T10:50:26;6.68;;;3.67;;
82505;SDS011;72144;51.444;10.560;2023-12-14T10:52:53;6.38;;;3.40;;
82505;SDS011;72144;51.444;10.560;2023-12-14T10:55:31;6.03;;;3.47;;
82505;SDS011;72144;51.444;10.560;2023-12-14T10:58:02;6.13;;;4.03;;
82505;SDS011;72144;51.444;10.560;2023-12-14T11:00:28;5.72;;;3.60;;
82505;SDS011;72144;51.444;10.560;2023-12-14T11:02:55;5.47;;;3.50;;
82505;SDS011;72144;51.444;10.560;2023-12-14T11:05:22;5.07;;;3.47;;
82505;SDS011;72144;51.444;10.560;2023-12-14T11:07:55;5.05;;;3.08;;
82505;SDS011;72144;51.444;10.560;2023-12-14T11:10:40;6.38;;;3.58;;
82505;SDS011;72144;51.444;10.560;2023-12-14T11:15:45;5.50;;;3.33;;
82505;SDS011;72144;51.444;10.560;2023-12-14T11:23:14;5.43;;;3.85;;
82505;SDS011;72144;51.444;10.560;2023-12-14T11:25:42;6.22;;;3.10;;
82505;SDS011;72144;51.444;10.560;2023-12-14T11:28:08;6.22;;;2.80;;
82505;SDS011;72144;51.444;10.560;2023-12-14T11:30:37;5.13;;;2.90;;
82505;SDS011;72144;51.444;10.560;2023-12-14T11:33:02;6.50;;;3.45;;
82505;SDS011;72144;51.444;10.560;2023-12-14T11:35:28;4.25;;;2.40;;
82505;SDS011;72144;51.444;10.560;2023-12-14T11:37:54;4.97;;;3.17;;
82505;SDS011;72144;51.444;10.560;2023-12-14T11:40:22;5.38;;;3.38;;
82505;SDS011;72144;51.444;10.560;2023-12-14T11:43:00;5.22;;;2.80;;
82505;SDS011;72144;51.444;10.560;2023-12-14T11:45:26;5.13;;;3.30;;
82505;SDS011;72144;51.444;10.560;2023-12-14T11:47:53;5.03;;;3.05;;
82505;SDS011;72144;51.444;10.560;2023-12-14T11:50:18;5.22;;;2.90;;
82505;SDS011;72144;51.444;10.560;2023-12-14T11:52:44;6.40;;;3.55;;
82505;SDS011;72144;51.444;10.560;2023-12-14T11:55:10;5.40;;;3.22;;
82505;SDS011;72144;51.444;10.560;2023-12-14T11:57:36;6.15;;;4.43;;
82505;SDS011;72144;51.444;10.560;2023-12-14T12:00:01;6.50;;;4.05;;
82505;SDS011;72144;51.444;10.560;2023-12-14T12:02:28;7.93;;;4.22;;
82505;SDS011;72144;51.444;10.560;2023-12-14T12:04:53;7.72;;;4.63;;
82505;SDS011;72144;51.444;10.560;2023-12-14T12:07:19;7.22;;;4.35;;
82505;SDS011;72144;51.444;10.560;2023-12-14T12:09:44;8.70;;;5.35;;
82505;SDS011;72144;51.444;10.560;2023-12-14T12:12:10;7.38;;;4.45;;
82505;SDS011;72144;51.444;10.560;2023-12-14T12:14:37;7.22;;;4.45;;
82505;SDS011;72144;51.444;10.560;2023-12-14T12:17:04;8.13;;;4.75;;
82505;SDS011;72144;51.444;10.560;2023-12-14T12:19:33;6.68;;;4.40;;
82505;SDS011;72144;51.444;10.560;2023-12-14T12:21:59;6.55;;;4.50;;
82505;SDS011;72144;51.444;10.560;2023-12-14T12:24:25;7.30;;;5.00;;
82505;SDS011;72144;51.444;10.560;2023-12-14T12:26:51;5.88;;;3.72;;
82505;SDS011;72144;51.444;10.560;2023-12-14T12:29:16;7.13;;;4.25;;
82505;SDS011;72144;51.444;10.560;2023-12-14T12:31:42;6.25;;;4.32;;
82505;SDS011;72144;51.444;10.560;2023-12-14T12:34:08;6.78;;;3.72;;
82505;SDS011;72144;51.444;10.560;2023-12-14T12:36:33;6.80;;;4.32;;
82505;SDS011;72144;51.444;10.560;2023-12-14T12:38:59;5.80;;;4.15;;
82505;SDS011;72144;51.444;10.560;2023-12-14T12:41:25;5.20;;;3.45;;
82505;SDS011;72144;51.444;10.560;2023-12-14T12:43:50;5.43;;;3.80;;
82505;SDS011;72144;51.444;10.560;2023-12-14T12:46:15;6.28;;;4.10;;
82505;SDS011;72144;51.444;10.560;2023-12-14T12:48:41;6.00;;;3.92;;
82505;SDS011;72144;51.444;10.560;2023-12-14T12:51:06;6.28;;;4.03;;
82505;SDS011;72144;51.444;10.560;2023-12-14T12:53:32;5.47;;;3.78;;
82505;SDS011;72144;51.444;10.560;2023-12-14T12:55:58;6.75;;;4.35;;
82505;SDS011;72144;51.444;10.560;2023-12-14T12:58:23;5.63;;;3.70;;
82505;SDS011;72144;51.444;10.560;2023-12-14T13:00:49;7.45;;;4.82;;
82505;SDS011;72144;51.444;10.560;2023-12-14T13:03:14;5.57;;;3.92;;
82505;SDS011;72144;51.444;10.560;2023-12-14T13:05:40;5.13;;;4.00;;
82505;SDS011;72144;51.444;10.560;2023-12-14T13:08:05;5.97;;;3.75;;
82505;SDS011;72144;51.444;10.560;2023-12-14T13:10:31;5.93;;;3.85;;
82505;SDS011;72144;51.444;10.560;2023-12-14T13:12:57;5.75;;;3.30;;
82505;SDS011;72144;51.444;10.560;2023-12-14T13:15:22;5.00;;;3.15;;
82505;SDS011;72144;51.444;10.560;2023-12-14T13:17:52;5.47;;;3.35;;
82505;SDS011;72144;51.444;10.560;2023-12-14T13:20:17;3.42;;;2.83;;
82505;SDS011;72144;51.444;10.560;2023-12-14T13:22:43;4.25;;;3.15;;
82505;SDS011;72144;51.444;10.560;2023-12-14T13:25:09;4.30;;;2.90;;
82505;SDS011;72144;51.444;10.560;2023-12-14T13:27:34;4.07;;;2.72;;
82505;SDS011;72144;51.444;10.560;2023-12-14T13:30:01;4.60;;;2.70;;
82505;SDS011;72144;51.444;10.560;2023-12-14T13:32:27;3.83;;;2.50;;
82505;SDS011;72144;51.444;10.560;2023-12-14T13:34:52;4.80;;;2.38;;
82505;SDS011;72144;51.444;10.560;2023-12-14T13:37:18;5.07;;;2.90;;
82505;SDS011;72144;51.444;10.560;2023-12-14T13:39:43;3.05;;;2.03;;
82505;SDS011;72144;51.444;10.560;2023-12-14T13:42:08;4.45;;;2.83;;
82505;SDS011;72144;51.444;10.560;2023-12-14T13:44:34;5.78;;;2.20;;
82505;SDS011;72144;51.444;10.560;2023-12-14T13:47:01;3.17;;;2.00;;
82505;SDS011;72144;51.444;10.560;2023-12-14T13:49:28;2.55;;;1.50;;
82505;SDS011;72144;51.444;10.560;2023-12-14T13:51:53;3.03;;;2.03;;
82505;SDS011;72144;51.444;10.560;2023-12-14T13:54:19;3.53;;;2.10;;
82505;SDS011;72144;51.444;10.560;2023-12-14T13:56:44;3.08;;;1.95;;
82505;SDS011;72144;51.444;10.560;2023-12-14T13:59:10;2.50;;;1.63;;
82505;SDS011;72144;51.444;10.560;2023-12-14T14:01:35;3.30;;;1.63;;
82505;SDS011;72144;51.444;10.560;2023-12-14T14:04:01;3.85;;;2.15;;
82505;SDS011;72144;51.444;10.560;2023-12-14T14:06:27;2.30;;;1.65;;
82505;SDS011;72144;51.444;10.560;2023-12-14T14:08:52;2.75;;;1.83;;
82505;SDS011;72144;51.444;10.560;2023-12-14T14:11:19;4.82;;;2.42;;
82505;SDS011;72144;51.444;10.560;2023-12-14T14:13:45;3.38;;;2.38;;
82505;SDS011;72144;51.444;10.560;2023-12-14T14:16:10;3.65;;;2.08;;
82505;SDS011;72144;51.444;10.560;2023-12-14T14:18:36;3.35;;;2.17;;
82505;SDS011;72144;51.444;10.560;2023-12-14T14:21:01;3.30;;;2.03;;
82505;SDS011;72144;51.444;10.560;2023-12-14T14:23:27;3.58;;;2.28;;
82505;SDS011;72144;51.444;10.560;2023-12-14T14:25:52;3.30;;;2.30;;
82505;SDS011;72144;51.444;10.560;2023-12-14T14:28:21;3.70;;;2.35;;
82505;SDS011;72144;51.444;10.560;2023-12-14T14:30:47;3.30;;;2.45;;
82505;SDS011;72144;51.444;10.560;2023-12-14T14:33:13;4.72;;;2.80;;
82505;SDS011;72144;51.444;10.560;2023-12-14T14:35:43;5.07;;;2.70;;
82505;SDS011;72144;51.444;10.560;2023-12-14T14:38:12;4.13;;;2.55;;